sensor_id;sensor_type;location;lat;lon;timestamp;pressure;altitude;pressure_sealevel;temperature;humidity
73671;BME280;61968;48.178;11.566;2023-12-14T00:01:35;94611.25;;;4.91;51.44
73671;BME280;61968;48.178;11.566;2023-12-14T00:04:04;94609.84;;;5.19;50.67
73671;BME280;61968;48.178;11.566;2023-12-14T00:06:30;94625.38;;;5.21;50.85
73671;BME280;61968;48.178;11.566;2023-12-14T00:08:56;94618.00;;;5.29;50.35
73671;BME280;61968;48.178;11.566;2023-12-14T00:11:22;94622.47;;;5.41;50.25
73671;BME280;61968;48.178;11.566;2023-12-14T00:13:49;94621.00;;;5.45;50.58
73671;BME280;61968;48.178;11.566;2023-12-14T00:16:15;94624.63;;;5.44;50.30
73671;BME280;61968;48.178;11.566;2023-12-14T00:18:41;94625.53;;;5.37;50.57
73671;BME280;61968;48.178;11.566;2023-12-14T00:21:09;94629.31;;;5.42;50.05
73671;BME280;61968;48.178;11.566;2023-12-14T00:23:36;94637.78;;;5.25;50.46
73671;BME280;61968;48.178;11.566;2023-12-14T00:26:02;94637.72;;;5.32;50.76
73671;BME280;61968;48.178;11.566;2023-12-14T00:28:29;94640.66;;;5.24;50.55
73671;BME280;61968;48.178;11.566;2023-12-14T00:30:55;94645.00;;;5.30;50.74
73671;BME280;61968;48.178;11.566;2023-12-14T00:33:22;94645.66;;;5.25;50.97
73671;BME280;61968;48.178;11.566;2023-12-14T00:35:48;94649.34;;;5.36;50.88
73671;BME280;61968;48.178;11.566;2023-12-14T00:38:16;94649.03;;;5.44;50.41
73671;BME280;61968;48.178;11.566;2023-12-14T00:40:43;94654.94;;;5.40;50.75
73671;BME280;61968;48.178;11.566;2023-12-14T00:43:09;94659.25;;;5.34;50.25
73671;BME280;61968;48.178;11.566;2023-12-14T00:45:36;94661.19;;;5.38;50.60
73671;BME280;61968;48.178;11.566;2023-12-14T00:48:03;94657.78;;;5.38;50.46
73671;BME280;61968;48.178;11.566;2023-12-14T00:50:29;94666.16;;;5.28;50.76
73671;BME280;61968;48.178;11.566;2023-12-14T00:52:56;94669.50;;;5.35;51.06
73671;BME280;61968;48.178;11.566;2023-12-14T00:55:24;94677.44;;;4.80;51.52
73671;BME280;61968;48.178;11.566;2023-12-14T00:57:50;94680.00;;;4.68;52.46
73671;BME280;61968;48.178;11.566;2023-12-14T01:00:18;94692.44;;;4.91;52.16
73671;BME280;61968;48.178;11.566;2023-12-14T01:02:45;94692.78;;;4.77;51.94
73671;BME280;61968;48.178;11.566;2023-12-14T01:05:11;94697.69;;;4.91;52.05
73671;BME280;61968;48.178;11.566;2023-12-14T01:07:38;94706.84;;;5.01;51.44
73671;BME280;61968;48.178;11.566;2023-12-14T01:10:05;94711.72;;;4.97;51.38
73671;BME280;61968;48.178;11.566;2023-12-14T01:12:33;94713.38;;;5.10;51.92
73671;BME280;61968;48.178;11.566;2023-12-14T01:15:00;94720.28;;;5.23;51.41
73671;BME280;61968;48.178;11.566;2023-12-14T01:17:27;94713.13;;;5.30;51.20
73671;BME280;61968;48.178;11.566;2023-12-14T01:19:54;94723.56;;;5.18;51.58
73671;BME280;61968;48.178;11.566;2023-12-14T01:22:21;94728.97;;;4.68;51.87
73671;BME280;61968;48.178;11.566;2023-12-14T01:24:47;94732.97;;;4.89;52.65
73671;BME280;61968;48.178;11.566;2023-12-14T01:27:13;94736.34;;;4.96;51.55
73671;BME280;61968;48.178;11.566;2023-12-14T01:29:41;94736.94;;;4.55;52.65
73671;BME280;61968;48.178;11.566;2023-12-14T01:32:08;94738.22;;;4.45;53.69
73671;BME280;61968;48.178;11.566;2023-12-14T01:34:35;94739.53;;;4.55;52.98
73671;BME280;61968;48.178;11.566;2023-12-14T01:37:04;94738.22;;;4.45;53.60
73671;BME280;61968;48.178;11.566;2023-12-14T01:39:32;94750.34;;;4.83;53.13
73671;BME280;61968;48.178;11.566;2023-12-14T01:41:59;94747.75;;;5.02;52.13
73671;BME280;61968;48.178;11.566;2023-12-14T01:44:25;94743.81;;;4.93;52.32
73671;BME280;61968;48.178;11.566;2023-12-14T01:46:53;94752.03;;;4.96;52.24
73671;BME280;61968;48.178;11.566;2023-12-14T01:49:19;94749.59;;;5.01;52.41
73671;BME280;61968;48.178;11.566;2023-12-14T01:51:46;94756.84;;;5.18;51.41
73671;BME280;61968;48.178;11.566;2023-12-14T01:54:12;94757.91;;;5.28;51.23
73671;BME280;61968;48.178;11.566;2023-12-14T01:56:38;94764.97;;;5.09;50.88
73671;BME280;61968;48.178;11.566;2023-12-14T01:59:05;94765.75;;;4.98;51.19
73671;BME280;61968;48.178;11.566;2023-12-14T02:01:33;94773.16;;;4.76;52.17
73671;BME280;61968;48.178;11.566;2023-12-14T02:04:04;94773.38;;;5.00;51.59
73671;BME280;61968;48.178;11.566;2023-12-14T02:06:32;94784.13;;;4.48;52.45
73671;BME280;61968;48.178;11.566;2023-12-14T02:08:58;94784.22;;;4.60;52.07
73671;BME280;61968;48.178;11.566;2023-12-14T02:11:25;94785.03;;;4.35;52.24
73671;BME280;61968;48.178;11.566;2023-12-14T02:13:51;94782.47;;;4.54;53.01
73671;BME280;61968;48.178;11.566;2023-12-14T02:16:17;94794.34;;;4.75;51.95
73671;BME280;61968;48.178;11.566;2023-12-14T02:18:44;94797.94;;;4.80;52.08
73671;BME280;61968;48.178;11.566;2023-12-14T02:21:12;94787.63;;;4.60;52.36
73671;BME280;61968;48.178;11.566;2023-12-14T02:23:43;94798.97;;;4.54;51.89
73671;BME280;61968;48.178;11.566;2023-12-14T02:26:10;94804.19;;;4.54;52.31
73671;BME280;61968;48.178;11.566;2023-12-14T02:28:36;94802.16;;;4.56;52.83
73671;BME280;61968;48.178;11.566;2023-12-14T02:31:03;94807.66;;;4.73;52.33
73671;BME280;61968;48.178;11.566;2023-12-14T02:33:29;94811.81;;;4.56;52.86
73671;BME280;61968;48.178;11.566;2023-12-14T02:35:56;94811.72;;;4.69;52.33
73671;BME280;61968;48.178;11.566;2023-12-14T02:38:22;94816.22;;;4.62;52.38
73671;BME280;61968;48.178;11.566;2023-12-14T02:40:50;94813.28;;;4.52;52.90
73671;BME280;61968;48.178;11.566;2023-12-14T02:43:17;94817.53;;;4.46;53.11
73671;BME280;61968;48.178;11.566;2023-12-14T02:45:44;94823.00;;;4.44;53.69
73671;BME280;61968;48.178;11.566;2023-12-14T02:48:10;94828.56;;;4.55;53.35
73671;BME280;61968;48.178;11.566;2023-12-14T02:50:37;94836.16;;;4.38;53.60
73671;BME280;61968;48.178;11.566;2023-12-14T02:53:03;94830.88;;;4.44;53.91
73671;BME280;61968;48.178;11.566;2023-12-14T02:55:30;94830.91;;;4.38;53.84
73671;BME280;61968;48.178;11.566;2023-12-14T02:57:58;94843.16;;;4.44;53.73
73671;BME280;61968;48.178;11.566;2023-12-14T03:00:24;94836.47;;;4.23;54.40
73671;BME280;61968;48.178;11.566;2023-12-14T03:02:50;94843.72;;;4.21;54.45
73671;BME280;61968;48.178;11.566;2023-12-14T03:05:17;94847.06;;;4.28;54.30
73671;BME280;61968;48.178;11.566;2023-12-14T03:07:43;94845.97;;;4.42;53.92
73671;BME280;61968;48.178;11.566;2023-12-14T03:10:10;94851.88;;;4.31;53.67
73671;BME280;61968;48.178;11.566;2023-12-14T03:12:37;94851.34;;;4.22;54.70
73671;BME280;61968;48.178;11.566;2023-12-14T03:15:05;94853.50;;;4.32;54.00
73671;BME280;61968;48.178;11.566;2023-12-14T03:17:31;94856.78;;;4.21;54.40
73671;BME280;61968;48.178;11.566;2023-12-14T03:19:58;94861.41;;;4.19;54.05
73671;BME280;61968;48.178;11.566;2023-12-14T03:22:24;94863.88;;;4.45;54.47
73671;BME280;61968;48.178;11.566;2023-12-14T03:24:51;94870.97;;;4.38;54.27
73671;BME280;61968;48.178;11.566;2023-12-14T03:27:17;94874.59;;;4.06;54.68
73671;BME280;61968;48.178;11.566;2023-12-14T03:29:45;94874.91;;;4.22;54.38
73671;BME280;61968;48.178;11.566;2023-12-14T03:32:13;94880.84;;;4.05;54.72
73671;BME280;61968;48.178;11.566;2023-12-14T03:34:39;94883.47;;;3.98;54.90
73671;BME280;61968;48.178;11.566;2023-12-14T03:37:06;94887.13;;;3.97;55.29
73671;BME280;61968;48.178;11.566;2023-12-14T03:39:32;94888.19;;;4.21;54.43
73671;BME280;61968;48.178;11.566;2023-12-14T03:41:58;94900.94;;;4.11;55.02
73671;BME280;61968;48.178;11.566;2023-12-14T03:44:25;94902.25;;;4.27;54.01
73671;BME280;61968;48.178;11.566;2023-12-14T03:46:51;94902.25;;;4.27;54.45
73671;BME280;61968;48.178;11.566;2023-12-14T03:49:20;94906.78;;;4.44;53.31
73671;BME280;61968;48.178;11.566;2023-12-14T03:51:47;94909.81;;;4.41;53.39
73671;BME280;61968;48.178;11.566;2023-12-14T03:54:13;94916.25;;;4.39;53.93
73671;BME280;61968;48.178;11.566;2023-12-14T03:56:40;94918.75;;;4.27;53.21
73671;BME280;61968;48.178;11.566;2023-12-14T03:59:06;94923.19;;;4.27;54.45
73671;BME280;61968;48.178;11.566;2023-12-14T04:01:33;94927.19;;;3.91;54.29
73671;BME280;61968;48.178;11.566;2023-12-14T04:04:02;94925.66;;;4.15;54.16
73671;BME280;61968;48.178;11.566;2023-12-14T04:06:30;94931.19;;;3.93;54.14
73671;BME280;61968;48.178;11.566;2023-12-14T04:08:56;94941.03;;;3.98;53.94
73671;BME280;61968;48.178;11.566;2023-12-14T04:11:22;94940.19;;;4.11;54.18
73671;BME280;61968;48.178;11.566;2023-12-14T04:13:49;94945.50;;;3.84;54.41
73671;BME280;61968;48.178;11.566;2023-12-14T04:16:19;94949.91;;;3.90;56.53
73671;BME280;61968;48.178;11.566;2023-12-14T04:18:45;94957.00;;;5.42;72.62
73671;BME280;61968;48.178;11.566;2023-12-14T04:21:12;94959.28;;;5.93;64.71
73671;BME280;61968;48.178;11.566;2023-12-14T04:23:40;94964.16;;;6.26;57.33
73671;BME280;61968;48.178;11.566;2023-12-14T04:26:06;94967.00;;;6.55;64.79
73671;BME280;61968;48.178;11.566;2023-12-14T04:28:34;94968.66;;;6.80;68.16
73671;BME280;61968;48.178;11.566;2023-12-14T04:31:01;94974.25;;;7.49;61.79
73671;BME280;61968;48.178;11.566;2023-12-14T04:33:27;94977.94;;;7.59;54.29
73671;BME280;61968;48.178;11.566;2023-12-14T04:35:53;94977.78;;;7.31;50.80
73671;BME280;61968;48.178;11.566;2023-12-14T04:38:20;94989.06;;;6.96;55.52
73671;BME280;61968;48.178;11.566;2023-12-14T04:40:47;94992.38;;;6.61;52.26
73671;BME280;61968;48.178;11.566;2023-12-14T04:43:14;94993.03;;;6.26;50.20
73671;BME280;61968;48.178;11.566;2023-12-14T04:45:40;94996.97;;;5.80;54.54
73671;BME280;61968;48.178;11.566;2023-12-14T04:48:07;95000.00;;;6.51;57.71
73671;BME280;61968;48.178;11.566;2023-12-14T04:50:33;95006.88;;;6.64;52.94
73671;BME280;61968;48.178;11.566;2023-12-14T04:53:00;95011.19;;;6.88;52.34
73671;BME280;61968;48.178;11.566;2023-12-14T04:55:26;95007.06;;;7.23;55.42
73671;BME280;61968;48.178;11.566;2023-12-14T04:57:54;95000.88;;;7.17;47.62
73671;BME280;61968;48.178;11.566;2023-12-14T05:00:20;95011.44;;;6.87;46.99
73671;BME280;61968;48.178;11.566;2023-12-14T05:02:47;95024.50;;;6.45;47.26
73671;BME280;61968;48.178;11.566;2023-12-14T05:05:14;95027.66;;;6.17;47.99
73671;BME280;61968;48.178;11.566;2023-12-14T05:07:41;95032.50;;;5.95;48.56
73671;BME280;61968;48.178;11.566;2023-12-14T05:10:07;95031.19;;;5.42;49.00
73671;BME280;61968;48.178;11.566;2023-12-14T05:12:34;95044.38;;;5.10;50.93
73671;BME280;61968;48.178;11.566;2023-12-14T05:15:02;95041.50;;;5.44;50.40
73671;BME280;61968;48.178;11.566;2023-12-14T05:17:29;95046.13;;;5.42;49.99
73671;BME280;61968;48.178;11.566;2023-12-14T05:19:55;95050.41;;;5.11;49.66
73671;BME280;61968;48.178;11.566;2023-12-14T05:22:21;95050.22;;;5.06;50.29
73671;BME280;61968;48.178;11.566;2023-12-14T05:24:48;95052.78;;;5.12;50.49
73671;BME280;61968;48.178;11.566;2023-12-14T05:27:14;95058.84;;;5.13;50.18
73671;BME280;61968;48.178;11.566;2023-12-14T05:29:40;95061.00;;;4.91;50.35
73671;BME280;61968;48.178;11.566;2023-12-14T05:32:08;95070.28;;;4.42;51.68
73671;BME280;61968;48.178;11.566;2023-12-14T05:34:35;95073.63;;;4.56;51.77
73671;BME280;61968;48.178;11.566;2023-12-14T05:37:01;95079.16;;;4.79;51.47
73671;BME280;61968;48.178;11.566;2023-12-14T05:39:28;95084.56;;;4.39;52.13
73671;BME280;61968;48.178;11.566;2023-12-14T05:41:54;95083.34;;;4.49;52.60
73671;BME280;61968;48.178;11.566;2023-12-14T05:44:21;95080.38;;;4.77;51.73
73671;BME280;61968;48.178;11.566;2023-12-14T05:46:47;95084.53;;;4.98;51.36
73671;BME280;61968;48.178;11.566;2023-12-14T05:49:15;95093.72;;;4.68;51.41
73671;BME280;61968;48.178;11.566;2023-12-14T05:51:42;95091.81;;;4.37;52.40
73671;BME280;61968;48.178;11.566;2023-12-14T05:54:08;95105.22;;;4.61;52.28
73671;BME280;61968;48.178;11.566;2023-12-14T05:56:34;95113.06;;;4.03;52.73
73671;BME280;61968;48.178;11.566;2023-12-14T05:59:01;95112.22;;;4.29;53.45
73671;BME280;61968;48.178;11.566;2023-12-14T06:01:27;95128.03;;;4.54;51.97
73671;BME280;61968;48.178;11.566;2023-12-14T06:03:54;95123.78;;;4.53;52.61
73671;BME280;61968;48.178;11.566;2023-12-14T06:06:22;95134.50;;;4.44;52.81
73671;BME280;61968;48.178;11.566;2023-12-14T06:08:48;95136.97;;;4.19;52.91
73671;BME280;61968;48.178;11.566;2023-12-14T06:11:15;95132.91;;;4.37;52.75
73671;BME280;61968;48.178;11.566;2023-12-14T06:13:41;95142.53;;;4.50;52.75
73671;BME280;61968;48.178;11.566;2023-12-14T06:16:08;95144.72;;;4.59;52.59
73671;BME280;61968;48.178;11.566;2023-12-14T06:18:38;95146.56;;;4.45;52.93
73671;BME280;61968;48.178;11.566;2023-12-14T06:21:06;95155.84;;;4.48;53.02
73671;BME280;61968;48.178;11.566;2023-12-14T06:23:34;95159.06;;;4.43;52.65
73671;BME280;61968;48.178;11.566;2023-12-14T06:26:02;95161.50;;;4.38;53.46
73671;BME280;61968;48.178;11.566;2023-12-14T06:28:29;95169.06;;;4.66;52.81
73671;BME280;61968;48.178;11.566;2023-12-14T06:30:55;95168.63;;;4.76;51.79
73671;BME280;61968;48.178;11.566;2023-12-14T06:33:22;95167.84;;;4.69;52.15
73671;BME280;61968;48.178;11.566;2023-12-14T06:35:48;95168.44;;;4.78;52.25
73671;BME280;61968;48.178;11.566;2023-12-14T06:38:15;95178.69;;;4.79;52.13
73671;BME280;61968;48.178;11.566;2023-12-14T06:40:42;95185.34;;;4.75;52.40
73671;BME280;61968;48.178;11.566;2023-12-14T06:43:09;95181.94;;;4.75;52.43
73671;BME280;61968;48.178;11.566;2023-12-14T06:45:36;95192.81;;;4.85;52.20
73671;BME280;61968;48.178;11.566;2023-12-14T06:48:04;95198.00;;;4.91;51.62
73671;BME280;61968;48.178;11.566;2023-12-14T06:50:30;95208.34;;;4.86;52.09
73671;BME280;61968;48.178;11.566;2023-12-14T06:52:57;95205.28;;;4.76;52.17
73671;BME280;61968;48.178;11.566;2023-12-14T06:55:23;95215.03;;;4.42;53.37
73671;BME280;61968;48.178;11.566;2023-12-14T06:57:51;95211.81;;;4.40;52.92
73671;BME280;61968;48.178;11.566;2023-12-14T07:00:18;95220.06;;;4.51;53.20
73671;BME280;61968;48.178;11.566;2023-12-14T07:02:44;95216.22;;;4.46;52.56
73671;BME280;61968;48.178;11.566;2023-12-14T07:05:11;95224.50;;;4.43;53.02
73671;BME280;61968;48.178;11.566;2023-12-14T07:07:37;95221.88;;;4.43;53.26
73671;BME280;61968;48.178;11.566;2023-12-14T07:10:04;95236.00;;;4.36;53.42
73671;BME280;61968;48.178;11.566;2023-12-14T07:12:30;95244.84;;;4.41;53.52
73671;BME280;61968;48.178;11.566;2023-12-14T07:14:58;95241.78;;;4.64;52.89
73671;BME280;61968;48.178;11.566;2023-12-14T07:17:25;95251.84;;;4.81;52.46
73671;BME280;61968;48.178;11.566;2023-12-14T07:19:51;95252.09;;;4.33;53.17
73671;BME280;61968;48.178;11.566;2023-12-14T07:22:18;95259.31;;;4.64;53.08
73671;BME280;61968;48.178;11.566;2023-12-14T07:24:45;95262.94;;;4.89;52.44
73671;BME280;61968;48.178;11.566;2023-12-14T07:27:11;95261.09;;;4.77;51.84
73671;BME280;61968;48.178;11.566;2023-12-14T07:29:38;95268.13;;;4.83;52.84
73671;BME280;61968;48.178;11.566;2023-12-14T07:32:06;95268.34;;;4.81;51.93
73671;BME280;61968;48.178;11.566;2023-12-14T07:34:33;95276.66;;;4.65;52.66
73671;BME280;61968;48.178;11.566;2023-12-14T07:36:59;95280.47;;;4.69;52.89
73671;BME280;61968;48.178;11.566;2023-12-14T07:39:26;95279.06;;;4.46;52.57
73671;BME280;61968;48.178;11.566;2023-12-14T07:41:52;95285.50;;;4.57;53.12
73671;BME280;61968;48.178;11.566;2023-12-14T07:44:18;95293.38;;;4.44;53.15
73671;BME280;61968;48.178;11.566;2023-12-14T07:46:45;95295.97;;;4.37;53.12
73671;BME280;61968;48.178;11.566;2023-12-14T07:49:13;95302.84;;;4.38;53.84
73671;BME280;61968;48.178;11.566;2023-12-14T07:51:40;95303.25;;;4.62;52.60
73671;BME280;61968;48.178;11.566;2023-12-14T07:54:07;95310.03;;;4.83;52.50
73671;BME280;61968;48.178;11.566;2023-12-14T07:56:33;95310.84;;;4.77;52.44
73671;BME280;61968;48.178;11.566;2023-12-14T07:59:00;95318.72;;;4.43;53.06
73671;BME280;61968;48.178;11.566;2023-12-14T08:01:26;95320.78;;;4.35;53.26
73671;BME280;61968;48.178;11.566;2023-12-14T08:03:53;95320.97;;;4.33;53.52
73671;BME280;61968;48.178;11.566;2023-12-14T08:06:20;95315.72;;;4.46;53.60
73671;BME280;61968;48.178;11.566;2023-12-14T08:08:47;95329.59;;;4.74;52.59
73671;BME280;61968;48.178;11.566;2023-12-14T08:11:13;95324.78;;;4.77;52.58
73671;BME280;61968;48.178;11.566;2023-12-14T08:13:40;95333.84;;;4.41;52.83
73671;BME280;61968;48.178;11.566;2023-12-14T08:16:06;95340.69;;;4.29;53.96
73671;BME280;61968;48.178;11.566;2023-12-14T08:18:33;95338.47;;;4.46;53.60
73671;BME280;61968;48.178;11.566;2023-12-14T08:20:59;95351.19;;;4.69;52.65
73671;BME280;61968;48.178;11.566;2023-12-14T08:23:27;95350.75;;;4.59;52.85
73671;BME280;61968;48.178;11.566;2023-12-14T08:25:55;95357.63;;;4.60;53.71
73671;BME280;61968;48.178;11.566;2023-12-14T08:28:22;95360.03;;;4.75;53.15
73671;BME280;61968;48.178;11.566;2023-12-14T08:30:49;95363.66;;;4.74;52.76
73671;BME280;61968;48.178;11.566;2023-12-14T08:33:15;95373.72;;;4.57;52.60
73671;BME280;61968;48.178;11.566;2023-12-14T08:35:42;95376.13;;;4.58;53.46
73671;BME280;61968;48.178;11.566;2023-12-14T08:38:09;95385.41;;;4.41;53.35
73671;BME280;61968;48.178;11.566;2023-12-14T08:40:37;95394.66;;;4.37;54.06
73671;BME280;61968;48.178;11.566;2023-12-14T08:43:04;95395.06;;;4.67;53.54
73671;BME280;61968;48.178;11.566;2023-12-14T08:45:30;95390.84;;;4.66;52.76
73671;BME280;61968;48.178;11.566;2023-12-14T08:47:57;95396.69;;;4.55;53.16
73671;BME280;61968;48.178;11.566;2023-12-14T08:50:23;95409.16;;;4.33;53.22
73671;BME280;61968;48.178;11.566;2023-12-14T08:52:51;95398.28;;;4.42;54.25
73671;BME280;61968;48.178;11.566;2023-12-14T08:55:17;95407.38;;;4.53;53.36
73671;BME280;61968;48.178;11.566;2023-12-14T08:57:45;95410.97;;;4.32;53.97
73671;BME280;61968;48.178;11.566;2023-12-14T09:00:13;95412.78;;;4.52;53.59
73671;BME280;61968;48.178;11.566;2023-12-14T09:02:39;95422.09;;;4.74;53.28
73671;BME280;61968;48.178;11.566;2023-12-14T09:05:06;95418.47;;;4.88;52.81
73671;BME280;61968;48.178;11.566;2023-12-14T09:07:33;95421.72;;;4.90;52.55
73671;BME280;61968;48.178;11.566;2023-12-14T09:09:59;95431.34;;;4.77;52.86
73671;BME280;61968;48.178;11.566;2023-12-14T09:12:26;95431.41;;;4.90;52.63
73671;BME280;61968;48.178;11.566;2023-12-14T09:14:54;95434.00;;;4.90;52.40
73671;BME280;61968;48.178;11.566;2023-12-14T09:17:20;95441.47;;;4.86;52.71
73671;BME280;61968;48.178;11.566;2023-12-14T09:19:47;95450.06;;;4.54;53.56
73671;BME280;61968;48.178;11.566;2023-12-14T09:22:13;95453.94;;;4.84;53.13
73671;BME280;61968;48.178;11.566;2023-12-14T09:24:39;95458.94;;;4.79;52.56
73671;BME280;61968;48.178;11.566;2023-12-14T09:27:06;95463.38;;;4.72;53.04
73671;BME280;61968;48.178;11.566;2023-12-14T09:29:32;95465.53;;;4.35;54.04
73671;BME280;61968;48.178;11.566;2023-12-14T09:32:00;95465.81;;;3.99;54.27
73671;BME280;61968;48.178;11.566;2023-12-14T09:34:26;95473.91;;;4.11;54.44
73671;BME280;61968;48.178;11.566;2023-12-14T09:36:53;95465.16;;;3.90;55.56
73671;BME280;61968;48.178;11.566;2023-12-14T09:39:19;95469.63;;;4.03;55.43
73671;BME280;61968;48.178;11.566;2023-12-14T09:41:46;95471.03;;;3.92;55.82
73671;BME280;61968;48.178;11.566;2023-12-14T09:44:13;95471.56;;;3.81;55.73
73671;BME280;61968;48.178;11.566;2023-12-14T09:46:39;95473.38;;;3.81;56.94
73671;BME280;61968;48.178;11.566;2023-12-14T09:49:15;95476.47;;;4.04;55.78
73671;BME280;61968;48.178;11.566;2023-12-14T09:51:42;95486.47;;;4.35;55.28
73671;BME280;61968;48.178;11.566;2023-12-14T09:54:11;95486.50;;;4.49;54.29
73671;BME280;61968;48.178;11.566;2023-12-14T09:56:45;95487.91;;;4.44;54.26
73671;BME280;61968;48.178;11.566;2023-12-14T09:59:12;95493.56;;;4.61;53.47
73671;BME280;61968;48.178;11.566;2023-12-14T10:01:39;95491.72;;;4.35;53.44
73671;BME280;61968;48.178;11.566;2023-12-14T10:04:07;95493.31;;;4.36;53.68
73671;BME280;61968;48.178;11.566;2023-12-14T10:06:35;95493.72;;;4.46;54.14
73671;BME280;61968;48.178;11.566;2023-12-14T10:09:02;95492.94;;;4.46;53.78
73671;BME280;61968;48.178;11.566;2023-12-14T10:11:29;95494.09;;;4.30;54.08
73671;BME280;61968;48.178;11.566;2023-12-14T10:13:55;95498.16;;;4.39;54.14
73671;BME280;61968;48.178;11.566;2023-12-14T10:16:31;95505.06;;;4.60;54.27
73671;BME280;61968;48.178;11.566;2023-12-14T10:18:59;95500.09;;;4.85;53.75
73671;BME280;61968;48.178;11.566;2023-12-14T10:21:26;95502.31;;;4.95;53.22
73671;BME280;61968;48.178;11.566;2023-12-14T10:23:56;95506.38;;;5.11;53.23
73671;BME280;61968;48.178;11.566;2023-12-14T10:26:23;95512.41;;;5.18;52.73
73671;BME280;61968;48.178;11.566;2023-12-14T10:28:51;95510.00;;;5.10;52.70
73671;BME280;61968;48.178;11.566;2023-12-14T10:31:17;95512.75;;;4.82;53.98
73671;BME280;61968;48.178;11.566;2023-12-14T10:33:45;95513.00;;;5.07;53.42
73671;BME280;61968;48.178;11.566;2023-12-14T10:36:15;95510.19;;;5.08;51.38
73671;BME280;61968;48.178;11.566;2023-12-14T10:38:45;95505.38;;;5.05;52.65
73671;BME280;61968;48.178;11.566;2023-12-14T10:41:17;95511.59;;;4.98;51.78
73671;BME280;61968;48.178;11.566;2023-12-14T10:43:44;95514.84;;;5.00;52.48
73671;BME280;61968;48.178;11.566;2023-12-14T10:46:13;95515.41;;;4.88;51.45
73671;BME280;61968;48.178;11.566;2023-12-14T10:48:40;95519.19;;;4.79;50.97
73671;BME280;61968;48.178;11.566;2023-12-14T10:51:10;95518.16;;;4.67;51.17
73671;BME280;61968;48.178;11.566;2023-12-14T10:53:37;95527.09;;;4.86;51.95
73671;BME280;61968;48.178;11.566;2023-12-14T10:56:07;95521.06;;;4.85;52.08
73671;BME280;61968;48.178;11.566;2023-12-14T10:58:47;95529.88;;;4.71;52.05
73671;BME280;61968;48.178;11.566;2023-12-14T11:01:15;95530.16;;;4.96;52.90
73671;BME280;61968;48.178;11.566;2023-12-14T11:03:42;95535.38;;;4.96;52.75
73671;BME280;61968;48.178;11.566;2023-12-14T11:06:30;95540.00;;;4.87;53.12
73671;BME280;61968;48.178;11.566;2023-12-14T11:08:59;95543.66;;;4.93;53.45
73671;BME280;61968;48.178;11.566;2023-12-14T11:11:29;95548.09;;;5.06;52.81
73671;BME280;61968;48.178;11.566;2023-12-14T11:13:57;95543.47;;;5.08;52.82
73671;BME280;61968;48.178;11.566;2023-12-14T11:16:25;95542.88;;;5.32;52.99
73671;BME280;61968;48.178;11.566;2023-12-14T11:19:23;95552.16;;;5.42;52.45
73671;BME280;61968;48.178;11.566;2023-12-14T11:22:09;95554.34;;;5.31;52.97
73671;BME280;61968;48.178;11.566;2023-12-14T11:24:37;95560.81;;;5.42;52.54
73671;BME280;61968;48.178;11.566;2023-12-14T11:27:07;95554.75;;;5.28;53.41
73671;BME280;61968;48.178;11.566;2023-12-14T11:29:37;95562.63;;;5.28;53.09
73671;BME280;61968;48.178;11.566;2023-12-14T11:32:05;95563.22;;;5.37;52.64
73671;BME280;61968;48.178;11.566;2023-12-14T11:34:32;95574.13;;;5.34;53.22
73671;BME280;61968;48.178;11.566;2023-12-14T11:36:58;95563.66;;;5.47;52.79
73671;BME280;61968;48.178;11.566;2023-12-14T11:39:29;95569.69;;;5.48;52.05
73671;BME280;61968;48.178;11.566;2023-12-14T11:41:59;95572.72;;;5.31;52.54
73671;BME280;61968;48.178;11.566;2023-12-14T11:44:26;95574.88;;;4.95;52.97
73671;BME280;61968;48.178;11.566;2023-12-14T11:46:54;95571.44;;;4.87;52.98
73671;BME280;61968;48.178;11.566;2023-12-14T11:49:20;95572.78;;;4.77;52.67
73671;BME280;61968;48.178;11.566;2023-12-14T11:51:46;95575.94;;;4.52;53.47
73671;BME280;61968;48.178;11.566;2023-12-14T11:54:13;95576.34;;;4.56;52.62
73671;BME280;61968;48.178;11.566;2023-12-14T11:56:49;95579.94;;;4.41;53.61
73671;BME280;61968;48.178;11.566;2023-12-14T11:59:17;95584.19;;;4.56;53.95
73671;BME280;61968;48.178;11.566;2023-12-14T12:01:56;95586.56;;;4.92;53.26
73671;BME280;61968;48.178;11.566;2023-12-14T12:04:23;95595.94;;;5.34;52.44
73671;BME280;61968;48.178;11.566;2023-12-14T12:07:03;95594.69;;;5.17;51.64
73671;BME280;61968;48.178;11.566;2023-12-14T12:09:37;95590.81;;;4.93;52.22
73671;BME280;61968;48.178;11.566;2023-12-14T12:12:09;95598.66;;;4.86;52.01
73671;BME280;61968;48.178;11.566;2023-12-14T12:14:39;95600.00;;;4.34;52.66
73671;BME280;61968;48.178;11.566;2023-12-14T12:17:11;95601.72;;;4.55;52.74
73671;BME280;61968;48.178;11.566;2023-12-14T12:19:45;95603.22;;;4.78;52.29
73671;BME280;61968;48.178;11.566;2023-12-14T12:22:13;95600.91;;;5.09;52.04
73671;BME280;61968;48.178;11.566;2023-12-14T12:24:40;95605.34;;;5.15;51.37
73671;BME280;61968;48.178;11.566;2023-12-14T12:27:07;95602.34;;;5.12;51.23
73671;BME280;61968;48.178;11.566;2023-12-14T12:29:34;95610.97;;;4.99;51.46
73671;BME280;61968;48.178;11.566;2023-12-14T12:32:03;95609.94;;;4.45;52.72
73671;BME280;61968;48.178;11.566;2023-12-14T12:34:31;95614.53;;;4.37;53.18
73671;BME280;61968;48.178;11.566;2023-12-14T12:36:58;95612.25;;;4.27;52.71
73671;BME280;61968;48.178;11.566;2023-12-14T12:39:25;95612.81;;;4.16;52.92
73671;BME280;61968;48.178;11.566;2023-12-14T12:41:54;95616.44;;;4.15;53.26
73671;BME280;61968;48.178;11.566;2023-12-14T12:44:21;95622.28;;;4.17;53.34
73671;BME280;61968;48.178;11.566;2023-12-14T12:46:48;95622.94;;;3.97;52.99
73671;BME280;61968;48.178;11.566;2023-12-14T12:49:22;95625.66;;;4.45;52.78
73671;BME280;61968;48.178;11.566;2023-12-14T12:51:50;95628.22;;;4.80;52.34
73671;BME280;61968;48.178;11.566;2023-12-14T12:54:20;95632.53;;;4.95;51.89
73671;BME280;61968;48.178;11.566;2023-12-14T12:56:47;95626.94;;;5.24;51.30
73671;BME280;61968;48.178;11.566;2023-12-14T12:59:14;95632.13;;;4.98;50.77
73671;BME280;61968;48.178;11.566;2023-12-14T13:01:50;95636.09;;;4.80;51.96